createdAt,value
2023-07-18T00:01:09.636Z,99360.00
2023-07-18T00:03:36.989Z,99380.75
2023-07-18T00:06:04.801Z,99378.09
2023-07-18T00:08:31.876Z,99384.22
2023-07-18T00:10:58.937Z,99376.47
2023-07-18T00:13:25.886Z,99375.91
2023-07-18T00:15:53.629Z,99377.16
2023-07-18T00:18:22.757Z,99366.81
2023-07-18T00:20:49.789Z,99371.47
2023-07-18T00:23:16.856Z,99371.47
2023-07-18T00:25:44.188Z,99363.81
2023-07-18T00:28:11.317Z,99371.47
2023-07-18T00:30:38.317Z,99374.13
2023-07-18T00:33:05.297Z,99368.81
2023-07-18T00:35:32.825Z,99375.16
2023-07-18T00:38:01.548Z,99377.69
2023-07-18T00:40:28.660Z,99373.56
2023-07-18T00:42:55.609Z,99360.00
2023-07-18T00:45:22.588Z,99358.97
2023-07-18T00:47:50.193Z,99357.13
2023-07-18T00:50:18.752Z,99352.81
2023-07-18T00:52:48.935Z,99340.13
2023-07-18T00:55:16.460Z,99338.13
2023-07-18T00:57:46.120Z,99339.50
2023-07-18T01:00:14.803Z,99331.88
2023-07-18T01:02:45.118Z,99338.13
2023-07-18T01:05:20.605Z,99321.56
2023-07-18T01:07:48.624Z,99326.56
2023-07-18T01:10:24.317Z,99325.50
2023-07-18T01:12:57.121Z,99302.13
2023-07-18T01:15:26.395Z,99318.44
2023-07-18T01:17:53.917Z,99319.50
2023-07-18T01:20:28.261Z,99310.91
2023-07-18T01:23:01.985Z,99300.16
2023-07-18T01:25:29.474Z,99301.31
2023-07-18T01:27:58.088Z,99291.72
2023-07-18T01:30:26.735Z,99303.38
2023-07-18T01:32:55.207Z,99289.03
2023-07-18T01:35:27.290Z,99285.81
2023-07-18T01:37:57.560Z,99290.06
2023-07-18T01:40:25.044Z,99282.09
2023-07-18T01:42:54.055Z,99277.81
2023-07-18T01:45:25.603Z,99273.53
2023-07-18T01:47:53.827Z,99280.16
2023-07-18T01:50:21.159Z,99271.34
2023-07-18T01:52:49.113Z,99273.19
2023-07-18T01:55:17.356Z,99260.94
2023-07-18T01:57:46.955Z,99271.81
2023-07-18T02:00:21.240Z,99272.50
2023-07-18T02:02:51.372Z,99275.28
2023-07-18T02:05:21.436Z,99263.13
2023-07-18T02:07:49.588Z,99270.75
2023-07-18T02:10:20.774Z,99265.56
2023-07-18T02:12:50.284Z,99264.50
2023-07-18T02:15:18.364Z,99263.94
2023-07-18T02:17:46.758Z,99263.00
2023-07-18T02:20:15.560Z,99262.41
2023-07-18T02:22:45.894Z,99246.34
2023-07-18T02:25:13.665Z,99251.66
2023-07-18T02:27:42.022Z,99247.38
2023-07-18T02:30:11.658Z,99254.78
2023-07-18T02:32:43.338Z,99248.88
2023-07-18T02:35:19.818Z,99240.97
2023-07-18T02:37:47.985Z,99233.69
2023-07-18T02:40:19.000Z,99235.66
2023-07-18T02:42:47.584Z,99231.59
2023-07-18T02:45:15.308Z,99233.47
2023-07-18T02:47:42.961Z,99241.44
2023-07-18T02:50:10.292Z,99224.31
2023-07-18T02:52:37.504Z,99231.97
2023-07-18T02:55:05.160Z,99231.53
2023-07-18T02:57:33.073Z,99234.53
2023-07-18T03:00:00.981Z,99233.25
2023-07-18T03:02:34.659Z,99243.22
2023-07-18T03:05:02.359Z,99226.81
2023-07-18T03:07:32.198Z,99233.25
2023-07-18T03:09:59.124Z,99241.38
2023-07-18T03:12:26.157Z,99230.28
2023-07-18T03:14:53.133Z,99224.84
2023-07-18T03:17:20.109Z,99225.75
2023-07-18T03:19:47.049Z,99221.13
2023-07-18T03:22:16.021Z,99217.09
2023-07-18T03:24:43.058Z,99218.22
2023-07-18T03:27:10.087Z,99224.00
2023-07-18T03:29:37.138Z,99225.25
2023-07-18T03:32:04.402Z,99221.34
2023-07-18T03:34:32.497Z,99203.41
2023-07-18T03:37:00.412Z,99204.09
2023-07-18T03:39:27.333Z,99206.47
2023-07-18T03:41:54.346Z,99198.44
2023-07-18T03:44:21.594Z,99198.94
2023-07-18T03:46:48.527Z,99199.78
2023-07-18T03:49:15.514Z,99196.03
2023-07-18T03:51:42.597Z,99188.44
2023-07-18T03:54:10.676Z,99185.50
2023-07-18T03:56:38.186Z,99194.69
2023-07-18T03:59:05.241Z,99180.13
2023-07-18T04:01:32.444Z,99174.44
2023-07-18T04:03:59.699Z,99183.44
2023-07-18T04:06:26.810Z,99153.72
2023-07-18T04:08:55.248Z,99175.91
2023-07-18T04:11:22.631Z,99180.94
2023-07-18T04:13:49.902Z,99180.41
2023-07-18T04:16:17.057Z,99175.16
2023-07-18T04:18:44.591Z,99184.22
2023-07-18T04:21:11.605Z,99182.66
2023-07-18T04:23:38.507Z,99176.31
2023-07-18T04:26:05.546Z,99175.25
2023-07-18T04:28:35.179Z,99180.78
2023-07-18T04:31:03.205Z,99181.44
2023-07-18T04:33:38.844Z,99175.06
2023-07-18T04:36:07.622Z,99162.88
2023-07-18T04:38:35.638Z,99163.28
2023-07-18T04:41:04.242Z,99157.41
2023-07-18T04:43:31.613Z,99161.47
2023-07-18T04:45:58.676Z,99152.91
2023-07-18T04:48:25.988Z,99157.88
2023-07-18T04:51:01.187Z,99153.75
2023-07-18T04:53:29.722Z,99153.06
2023-07-18T04:55:57.106Z,99152.53
2023-07-18T04:58:28.906Z,99153.38
2023-07-18T05:00:57.597Z,99140.97
2023-07-18T05:03:26.360Z,99144.59
2023-07-18T05:05:54.492Z,99133.63
2023-07-18T05:08:21.704Z,99137.38
2023-07-18T05:10:49.277Z,99125.44
2023-07-18T05:13:16.647Z,99138.31
2023-07-18T05:15:44.208Z,99127.22
2023-07-18T05:18:11.299Z,99115.63
2023-07-18T05:20:38.351Z,99122.78
2023-07-18T05:23:05.993Z,99130.53
2023-07-18T05:25:32.968Z,99116.19
2023-07-18T05:27:59.982Z,99108.94
2023-07-18T05:30:28.325Z,99105.97
2023-07-18T05:32:55.809Z,99107.09
2023-07-18T05:35:23.085Z,99106.56
2023-07-18T05:37:50.097Z,99106.03
2023-07-18T05:40:21.774Z,99109.13
2023-07-18T05:42:49.695Z,99101.91
2023-07-18T05:45:16.810Z,99096.63
2023-07-18T05:47:44.146Z,99084.13
2023-07-18T05:50:11.897Z,99086.31
2023-07-18T05:52:39.667Z,99075.53
2023-07-18T05:55:07.721Z,99065.91
2023-07-18T05:57:35.022Z,99060.13
2023-07-18T06:00:02.585Z,99061.88
2023-07-18T06:02:39.867Z,99068.75
2023-07-18T06:05:08.175Z,99053.88
2023-07-18T06:07:35.603Z,99046.78
2023-07-18T06:10:03.274Z,99046.91
2023-07-18T06:12:32.447Z,99044.13
2023-07-18T06:14:59.772Z,99047.28
2023-07-18T06:17:27.631Z,99037.47
2023-07-18T06:19:54.624Z,99052.22
2023-07-18T06:22:22.286Z,99041.63
2023-07-18T06:24:49.436Z,99044.16
2023-07-18T06:27:16.528Z,99039.00
2023-07-18T06:29:45.435Z,99043.44
2023-07-18T06:32:12.386Z,99044.19
2023-07-18T06:34:42.352Z,99037.94
2023-07-18T06:37:11.622Z,99038.22
2023-07-18T06:39:39.694Z,99036.50
2023-07-18T06:42:10.104Z,99046.69
2023-07-18T06:44:37.564Z,99042.84
2023-07-18T06:47:05.352Z,99045.06
2023-07-18T06:49:32.523Z,99035.84
2023-07-18T06:51:59.455Z,99037.19
2023-07-18T06:54:26.485Z,99026.63
2023-07-18T06:56:53.509Z,99019.00
2023-07-18T06:59:20.461Z,99010.41
2023-07-18T07:01:47.421Z,99004.44
2023-07-18T07:04:14.502Z,98992.44
2023-07-18T07:06:43.416Z,98998.72
2023-07-18T07:09:14.192Z,98999.09
2023-07-18T07:11:42.951Z,99000.16
2023-07-18T07:14:10.269Z,98989.31
2023-07-18T07:16:37.318Z,98989.53
2023-07-18T07:19:06.824Z,98979.91
2023-07-18T07:21:34.013Z,98982.94
2023-07-18T07:24:01.999Z,98976.19
2023-07-18T07:26:30.113Z,98977.59
2023-07-18T07:28:57.534Z,98972.28
2023-07-18T07:31:25.302Z,98963.09
2023-07-18T07:33:53.252Z,98963.25
2023-07-18T07:36:22.173Z,98949.63
2023-07-18T07:38:49.697Z,98955.25
2023-07-18T07:41:17.624Z,98959.59
2023-07-18T07:43:44.965Z,98943.16
2023-07-18T07:46:12.022Z,98948.41
2023-07-18T07:48:40.328Z,98947.94
2023-07-18T07:51:07.690Z,98928.84
2023-07-18T07:53:34.776Z,98932.78
2023-07-18T07:56:01.923Z,98931.19
2023-07-18T07:58:28.987Z,98928.63
2023-07-18T08:00:56.100Z,98936.25
2023-07-18T08:03:23.222Z,98924.94
2023-07-18T08:05:55.008Z,98921.88
2023-07-18T08:08:22.100Z,98927.19
2023-07-18T08:10:49.107Z,98912.00
2023-07-18T08:13:18.432Z,98915.69
2023-07-18T08:15:45.708Z,98902.66
2023-07-18T08:18:12.872Z,98902.31
2023-07-18T08:20:39.909Z,98900.59
2023-07-18T08:23:07.025Z,98896.09
2023-07-18T08:25:34.179Z,98900.13
2023-07-18T08:28:01.297Z,98898.47
2023-07-18T08:30:28.277Z,98905.47
2023-07-18T08:32:55.368Z,98893.00
2023-07-18T08:35:22.415Z,98902.59
2023-07-18T08:37:49.365Z,98891.97
2023-07-18T08:40:16.706Z,98889.28
2023-07-18T08:42:43.949Z,98881.09
2023-07-18T08:45:15.077Z,98879.00
2023-07-18T08:47:45.054Z,98878.13
2023-07-18T08:50:12.732Z,98871.44
2023-07-18T08:52:40.959Z,98874.28
2023-07-18T08:55:10.086Z,98857.88
2023-07-18T08:57:38.710Z,98857.84
2023-07-18T09:00:06.315Z,98870.44
2023-07-18T09:02:35.185Z,98854.66
2023-07-18T09:05:02.207Z,98855.06
2023-07-18T09:07:37.365Z,98858.44
2023-07-18T09:10:05.347Z,98843.63
2023-07-18T09:12:36.612Z,98846.97
2023-07-18T09:15:03.907Z,98838.28
2023-07-18T09:17:33.597Z,98835.81
2023-07-18T09:20:09.348Z,98835.66
2023-07-18T09:22:36.642Z,98839.19
2023-07-18T09:25:04.058Z,98827.69
2023-07-18T09:27:31.256Z,98817.19
2023-07-18T09:29:58.346Z,98825.81
2023-07-18T09:32:26.145Z,98824.25
2023-07-18T09:34:59.899Z,98826.84
2023-07-18T09:37:28.966Z,98826.31
2023-07-18T09:39:56.094Z,98821.44
2023-07-18T09:42:25.133Z,98810.50
2023-07-18T09:44:53.566Z,98804.16
2023-07-18T09:47:21.730Z,98803.63
2023-07-18T09:49:49.212Z,98795.56
2023-07-18T09:52:17.389Z,98786.13
2023-07-18T09:54:45.225Z,98786.91
2023-07-18T09:57:13.885Z,98787.66
2023-07-18T09:59:41.238Z,98788.03
2023-07-18T10:02:11.889Z,98778.50
2023-07-18T10:04:39.998Z,98777.69
2023-07-18T10:07:11.555Z,98777.38
2023-07-18T10:09:39.590Z,98758.97
2023-07-18T10:12:07.370Z,98758.19
2023-07-18T10:15:01.480Z,98753.47
2023-07-18T10:17:35.452Z,98734.06
2023-07-18T10:20:08.042Z,98726.44
2023-07-18T10:22:35.150Z,98737.56
2023-07-18T10:25:09.258Z,98729.09
2023-07-18T10:27:47.047Z,98735.53
2023-07-18T10:30:17.132Z,98720.44
2023-07-18T10:32:57.118Z,98710.63
2023-07-18T10:35:27.530Z,98701.81
2023-07-18T10:37:57.174Z,98688.56
2023-07-18T10:40:41.171Z,98688.53
2023-07-18T10:43:17.030Z,98695.88
2023-07-18T10:45:44.802Z,98697.34
2023-07-18T10:48:16.100Z,98688.44
2023-07-18T10:50:44.800Z,98684.63
2023-07-18T10:53:20.059Z,98678.09
2023-07-18T10:55:49.127Z,98670.44
2023-07-18T10:58:18.516Z,98671.81
2023-07-18T11:00:46.073Z,98664.59
2023-07-18T11:03:23.747Z,98660.13
2023-07-18T11:05:52.057Z,98649.91
2023-07-18T11:08:26.520Z,98657.88
2023-07-18T11:10:55.555Z,98657.47
2023-07-18T11:13:37.118Z,98660.00
2023-07-18T11:16:08.460Z,98687.91
2023-07-18T11:18:36.903Z,98748.47
2023-07-18T11:21:05.208Z,98908.22
2023-07-18T11:23:34.183Z,98736.00
2023-07-18T11:26:10.324Z,98732.47
2023-07-18T11:28:37.426Z,98725.22
2023-07-18T11:31:04.618Z,98703.94
2023-07-18T11:33:34.385Z,98709.28
2023-07-18T11:36:02.022Z,98725.69
2023-07-18T11:38:30.188Z,98739.66
2023-07-18T11:40:58.895Z,98741.13
2023-07-18T11:43:31.300Z,98739.69
2023-07-18T11:45:58.316Z,98739.50
2023-07-18T11:48:26.502Z,98694.06
2023-07-18T11:50:54.400Z,98709.38
2023-07-18T11:53:28.642Z,98700.78
2023-07-18T11:55:56.884Z,98698.22
2023-07-18T11:58:25.718Z,98686.72
2023-07-18T12:00:57.954Z,98671.56
2023-07-18T12:03:25.075Z,98670.50
2023-07-18T12:05:52.228Z,98669.13
2023-07-18T12:08:20.303Z,98673.34
2023-07-18T12:10:56.369Z,98673.00
2023-07-18T12:13:34.070Z,98675.66
2023-07-18T12:16:01.355Z,98676.72
2023-07-18T12:18:29.536Z,98665.28
2023-07-18T12:20:56.574Z,98664.31
2023-07-18T12:23:23.543Z,98663.03
2023-07-18T12:25:51.122Z,98655.59
2023-07-18T12:28:18.237Z,98653.72
2023-07-18T12:30:45.547Z,98642.06
2023-07-18T12:33:13.458Z,98644.47
2023-07-18T12:35:40.494Z,98645.28
2023-07-18T12:38:07.837Z,98659.16
2023-07-18T12:40:34.915Z,98694.50
2023-07-18T12:43:01.922Z,98708.28
2023-07-18T12:45:30.118Z,98710.53
2023-07-18T12:47:57.266Z,98691.31
2023-07-18T12:50:27.002Z,98724.53
2023-07-18T12:52:54.867Z,98704.06
2023-07-18T12:55:21.943Z,98701.72
2023-07-18T12:57:49.606Z,98698.41
2023-07-18T13:00:17.103Z,98686.75
2023-07-18T13:02:47.939Z,98676.38
2023-07-18T13:05:15.138Z,98653.66
2023-07-18T13:07:42.321Z,98641.38
2023-07-18T13:10:11.362Z,98642.97
2023-07-18T13:12:39.831Z,98646.44
2023-07-18T13:15:07.298Z,98642.34
2023-07-18T13:17:34.409Z,98626.44
2023-07-18T13:20:01.453Z,98624.19
2023-07-18T13:22:31.834Z,98607.25
2023-07-18T13:24:58.832Z,98608.81
2023-07-18T13:27:25.767Z,98582.94
2023-07-18T13:29:53.061Z,98571.19
2023-07-18T13:32:20.072Z,98547.16
2023-07-18T13:34:47.195Z,98543.69
2023-07-18T13:37:16.041Z,98531.97
2023-07-18T13:39:43.089Z,98537.94
2023-07-18T13:42:10.000Z,98535.31
2023-07-18T13:44:37.048Z,98527.59
2023-07-18T13:47:04.771Z,98526.56
2023-07-18T13:52:03.374Z,98527.94
2023-07-18T13:54:30.452Z,98525.88
2023-07-18T13:56:57.413Z,98525.34
2023-07-18T13:59:24.338Z,98524.00
2023-07-18T14:01:51.353Z,98524.06
2023-07-18T14:04:20.989Z,98524.88
2023-07-18T14:06:48.111Z,98514.19
2023-07-18T14:09:15.743Z,98520.06
2023-07-18T14:11:42.703Z,98516.91
2023-07-18T14:14:11.862Z,98517.72
2023-07-18T14:16:38.860Z,98511.06
2023-07-18T14:19:05.958Z,98503.84
2023-07-18T14:21:32.976Z,98497.97
2023-07-18T14:24:02.451Z,98484.66
2023-07-18T14:26:29.643Z,98487.06
2023-07-18T14:28:56.668Z,98484.38
2023-07-18T14:31:23.763Z,98481.72
2023-07-18T14:34:04.721Z,98476.88
2023-07-18T14:36:33.663Z,98470.72
2023-07-18T14:39:00.887Z,98476.84
2023-07-18T14:41:27.872Z,98472.00
2023-07-18T14:43:54.860Z,98465.84
2023-07-18T14:46:23.519Z,98463.94
2023-07-18T14:48:51.042Z,98481.50
2023-07-18T14:51:18.006Z,98472.44
2023-07-18T14:53:47.119Z,98475.09
2023-07-18T14:56:14.193Z,98458.00
2023-07-18T14:58:41.248Z,98455.59
2023-07-18T15:01:08.266Z,98452.66
2023-07-18T15:03:36.881Z,98454.22
2023-07-18T15:06:07.279Z,98452.63
2023-07-18T15:08:35.119Z,98449.34
2023-07-18T15:11:02.546Z,98445.06
2023-07-18T15:13:29.574Z,98437.66
2023-07-18T15:15:56.589Z,98442.97
2023-07-18T15:18:23.572Z,98440.56
2023-07-18T15:20:50.646Z,98430.38
2023-07-18T15:23:17.682Z,98429.31
2023-07-18T15:25:45.084Z,98434.91
2023-07-18T15:28:14.760Z,98427.44
2023-07-18T15:30:42.711Z,98435.94
2023-07-18T15:33:25.574Z,98422.59
2023-07-18T15:35:54.108Z,98426.81
2023-07-18T15:38:21.291Z,98417.19
2023-07-18T15:40:48.903Z,98420.09
2023-07-18T15:43:15.831Z,98417.41
2023-07-18T15:45:47.080Z,98423.75
2023-07-18T15:48:15.526Z,98401.50
2023-07-18T15:50:42.722Z,98398.59
2023-07-18T15:53:09.748Z,98408.72
2023-07-18T15:55:36.834Z,98399.91
2023-07-18T15:58:03.745Z,98404.72
2023-07-18T16:00:35.354Z,98395.00
2023-07-18T16:03:02.428Z,98399.72
2023-07-18T16:05:29.460Z,98385.56
2023-07-18T16:07:56.456Z,98381.56
2023-07-18T16:10:23.648Z,98378.41
2023-07-18T16:12:52.267Z,98379.97
2023-07-18T16:15:20.631Z,98380.53
2023-07-18T16:17:47.677Z,98381.53
2023-07-18T16:20:14.725Z,98379.94
2023-07-18T16:22:53.962Z,98380.25
2023-07-18T16:25:21.100Z,98381.38
2023-07-18T16:27:49.906Z,98374.94
2023-07-18T16:30:19.285Z,98386.69
2023-07-18T16:32:46.521Z,98389.06
2023-07-18T16:35:13.842Z,98380.16
2023-07-18T16:37:43.493Z,98381.75
2023-07-18T16:40:11.464Z,98380.72
2023-07-18T16:42:38.429Z,98379.06
2023-07-18T16:45:05.928Z,98376.34
2023-07-18T16:47:33.959Z,98376.22
2023-07-18T16:50:01.250Z,98374.06
2023-07-18T16:52:31.225Z,98367.16
2023-07-18T16:54:58.238Z,98368.66
2023-07-18T16:57:25.293Z,98367.88
2023-07-18T16:59:52.377Z,98359.59
2023-07-18T17:02:19.668Z,98346.19
2023-07-18T17:04:46.870Z,98348.91
2023-07-18T17:07:14.153Z,98341.34
2023-07-18T17:09:41.232Z,98345.97
2023-07-18T17:12:11.583Z,98339.28
2023-07-18T17:14:40.870Z,98329.72
2023-07-18T17:17:08.675Z,98323.34
2023-07-18T17:19:42.003Z,98315.94
2023-07-18T17:22:19.865Z,98318.09
2023-07-18T17:24:46.907Z,98311.00
2023-07-18T17:27:13.853Z,98308.91
2023-07-18T17:29:40.940Z,98302.47
2023-07-18T17:32:08.046Z,98306.16
2023-07-18T17:34:36.744Z,98305.38
2023-07-18T17:37:04.899Z,98311.47
2023-07-18T17:39:33.465Z,98296.63
2023-07-18T17:42:01.307Z,98293.63
2023-07-18T17:44:28.370Z,98280.31
2023-07-18T17:46:55.624Z,98284.16
2023-07-18T17:49:22.791Z,98270.34
2023-07-18T17:51:49.695Z,98259.22
2023-07-18T17:54:16.635Z,98243.06
2023-07-18T17:56:43.727Z,98237.50
2023-07-18T17:59:10.776Z,98227.38
2023-07-18T18:01:38.421Z,98231.56
2023-07-18T18:04:07.603Z,98220.34
2023-07-18T18:06:34.960Z,98216.00
2023-07-18T18:09:01.964Z,98209.59
2023-07-18T18:11:29.164Z,98206.63
2023-07-18T18:13:58.004Z,98202.84
2023-07-18T18:16:25.273Z,98198.63
2023-07-18T18:18:52.296Z,98196.44
2023-07-18T18:21:19.660Z,98199.41
2023-07-18T18:23:46.866Z,98197.53
2023-07-18T18:26:13.927Z,98194.66
2023-07-18T18:28:40.885Z,98189.09
2023-07-18T18:31:07.925Z,98173.63
2023-07-18T18:33:35.050Z,98178.13
2023-07-18T18:36:02.489Z,98173.00
2023-07-18T18:38:29.543Z,98161.81
2023-07-18T18:40:58.978Z,98161.09
2023-07-18T18:43:26.473Z,98157.63
2023-07-18T18:45:53.526Z,98162.06
2023-07-18T18:48:20.595Z,98156.28
2023-07-18T18:50:49.973Z,98146.97
2023-07-18T18:53:18.106Z,98136.38
2023-07-18T18:55:45.211Z,98137.66
2023-07-18T18:58:14.343Z,98122.72
2023-07-18T19:00:41.667Z,98128.56
2023-07-18T19:03:09.008Z,98123.19
2023-07-18T19:05:36.205Z,98114.69
2023-07-18T19:08:03.678Z,98116.31
2023-07-18T19:10:31.290Z,98110.19
2023-07-18T19:12:58.268Z,98112.84
2023-07-18T19:15:25.369Z,98107.78
2023-07-18T19:17:54.049Z,98110.25
2023-07-18T19:20:21.331Z,98106.13
2023-07-18T19:22:48.652Z,98105.38
2023-07-18T19:25:16.269Z,98096.38
2023-07-18T19:27:43.299Z,98090.53
2023-07-18T19:30:12.769Z,98101.63
2023-07-18T19:32:44.250Z,98083.13
2023-07-18T19:35:11.317Z,98086.38
2023-07-18T19:37:38.393Z,98092.50
2023-07-18T19:40:05.848Z,98092.00
2023-07-18T19:42:32.961Z,98090.91
2023-07-18T19:45:00.202Z,98091.19
2023-07-18T19:47:27.359Z,98087.97
2023-07-18T19:49:54.339Z,98095.16
2023-07-18T19:52:22.039Z,98109.91
2023-07-18T19:54:49.042Z,98098.59
2023-07-18T19:57:16.080Z,98103.66
2023-07-18T19:59:42.986Z,98104.06
2023-07-18T20:02:09.978Z,98094.59
2023-07-18T20:04:37.105Z,98095.56
2023-07-18T20:07:04.432Z,98092.69
2023-07-18T20:09:31.441Z,98084.13
2023-07-18T20:11:58.407Z,98097.50
2023-07-18T20:14:25.435Z,98085.09
2023-07-18T20:16:52.563Z,98088.13
2023-07-18T20:19:19.580Z,98080.28
2023-07-18T20:21:46.835Z,98076.16
2023-07-18T20:24:13.799Z,98075.28
2023-07-18T20:26:43.623Z,98066.13
2023-07-18T20:29:10.734Z,98068.72
2023-07-18T20:31:38.107Z,98069.19
2023-07-18T20:34:05.076Z,98059.56
2023-07-18T20:36:31.978Z,98056.28
2023-07-18T20:38:58.941Z,98060.31
2023-07-18T20:41:26.435Z,98056.47
2023-07-18T20:43:53.433Z,98060.31
2023-07-18T20:46:22.487Z,98053.41
2023-07-18T20:48:49.560Z,98047.09
2023-07-18T20:51:16.547Z,98047.28
2023-07-18T20:53:43.623Z,98037.66
2023-07-18T20:56:10.642Z,98033.84
2023-07-18T20:58:37.749Z,98029.72
2023-07-18T21:01:04.960Z,98036.56
2023-07-18T21:03:34.310Z,98034.63
2023-07-18T21:06:01.434Z,98028.69
2023-07-18T21:08:28.408Z,98034.94
